Saint Stephen, South Carolina
Current Conditions -  °F | °C
As of 4:35 PM on Friday 19 Dec 2014 (Local Time) from KMKS Reporting Station
Clear Clear  
Wind Chill: 59°   Ceiling: Unl
Heat Index: 59°   Visibility: 7mi
Dew Point: 46°   Wind: 0mph
Humidity: 63%   Direction: NA
Pressure: 30.09"   Gusts: NA
Location:  33.4°N, 79.92°W
Report Text: KMKS 192135Z AUTO 00000KT 7SM CLR 15/08 A3009 RMK AO2
Loading
Personal Weather Stations






























Interactive Weather Map New forecast layout! Learn more

10-Day Weather Forecast

Advertisements
Track Severe Weather on mobile